createdAt,value
2023-04-27T00:01:53.426Z,1
2023-04-27T00:03:53.621Z,1
2023-04-27T00:05:53.156Z,1
2023-04-27T00:07:53.472Z,1
2023-04-27T00:09:53.243Z,1
2023-04-27T00:11:53.501Z,1
2023-04-27T00:13:59.633Z,1
2023-04-27T00:15:53.059Z,1
2023-04-27T00:17:53.495Z,1
2023-04-27T00:19:56.765Z,1
2023-04-27T00:21:53.430Z,1
2023-04-27T00:23:53.419Z,1
2023-04-27T00:25:52.920Z,1
2023-04-27T00:27:59.791Z,1
2023-04-27T00:29:53.434Z,1
2023-04-27T00:31:56.653Z,1
2023-04-27T00:33:56.557Z,1
2023-04-27T00:35:52.998Z,1
2023-04-27T00:37:59.752Z,1
2023-04-27T00:39:56.724Z,1
2023-04-27T00:41:59.668Z,1
2023-04-27T00:43:59.573Z,1
2023-04-27T00:45:56.680Z,1
2023-04-27T00:47:56.657Z,1
2023-04-27T00:49:52.800Z,1
2023-04-27T00:51:53.629Z,1
2023-04-27T00:53:53.320Z,1
2023-04-27T00:55:52.851Z,1
2023-04-27T00:57:52.937Z,1
2023-04-27T00:59:53.412Z,1
2023-04-27T01:01:53.410Z,1
2023-04-27T01:03:59.724Z,1
2023-04-27T01:05:53.405Z,1
2023-04-27T01:07:59.698Z,1
2023-04-27T01:09:52.939Z,1
2023-04-27T01:11:53.416Z,1
2023-04-27T01:13:52.967Z,1
2023-04-27T01:15:53.378Z,1
2023-04-27T01:17:53.420Z,1
2023-04-27T01:19:56.646Z,1
2023-04-27T01:21:53.336Z,1
2023-04-27T01:23:56.514Z,1
2023-04-27T01:25:53.396Z,1
2023-04-27T01:27:52.922Z,1
2023-04-27T01:29:59.713Z,1
2023-04-27T01:31:56.480Z,1
2023-04-27T01:33:53.347Z,1
2023-04-27T01:35:53.463Z,1
2023-04-27T01:37:56.543Z,1
2023-04-27T01:39:56.648Z,1
2023-04-27T01:41:53.367Z,1
2023-04-27T01:43:53.286Z,1
2023-04-27T01:47:56.556Z,1
2023-04-27T01:49:53.010Z,1
2023-04-27T01:51:56.562Z,1
2023-04-27T01:53:53.367Z,1
2023-04-27T01:55:53.404Z,1
2023-04-27T01:57:53.417Z,1
2023-04-27T01:59:52.972Z,1
2023-04-27T02:03:53.314Z,1
2023-04-27T02:05:53.379Z,1
2023-04-27T02:07:56.563Z,1
2023-04-27T02:09:53.499Z,1
2023-04-27T02:11:53.445Z,1
2023-04-27T02:13:53.415Z,1
2023-04-27T02:15:53.385Z,1
2023-04-27T02:17:59.718Z,1
2023-04-27T02:19:52.994Z,1
2023-04-27T02:21:53.012Z,1
2023-04-27T02:23:56.568Z,1
2023-04-27T02:25:53.329Z,1
2023-04-27T02:27:56.576Z,1
2023-04-27T02:29:56.591Z,1
2023-04-27T02:31:52.989Z,1
2023-04-27T02:33:54.032Z,1
2023-04-27T02:35:52.868Z,1
2023-04-27T02:37:53.467Z,1
2023-04-27T02:39:56.535Z,1
2023-04-27T02:41:53.441Z,1
2023-04-27T02:43:53.556Z,1
2023-04-27T02:45:53.503Z,1
2023-04-27T02:47:56.764Z,1
2023-04-27T02:49:56.491Z,1
2023-04-27T02:51:52.890Z,1
2023-04-27T02:53:52.885Z,1
2023-04-27T02:55:53.313Z,1
2023-04-27T02:57:59.672Z,1
2023-04-27T02:59:53.401Z,1
2023-04-27T03:01:53.449Z,1
2023-04-27T03:03:53.693Z,1
2023-04-27T03:05:53.383Z,1
2023-04-27T03:07:52.969Z,1
2023-04-27T03:09:52.989Z,0
2023-04-27T03:11:56.540Z,0
2023-04-27T03:13:53.497Z,0
2023-04-27T03:15:53.487Z,0
2023-04-27T03:17:53.472Z,0
2023-04-27T03:19:53.369Z,0.1
2023-04-27T03:21:53.095Z,0.1
2023-04-27T03:23:52.957Z,0.1
2023-04-27T03:25:53.503Z,0.3
2023-04-27T03:27:56.702Z,0.4
2023-04-27T03:29:53.448Z,0.4
2023-04-27T03:31:59.811Z,0.7
2023-04-27T03:33:53.319Z,0.9
2023-04-27T03:35:53.564Z,1.2
2023-04-27T03:37:53.514Z,1.6
2023-04-27T03:39:53.049Z,2.3
2023-04-27T03:41:53.416Z,3
2023-04-27T03:43:56.638Z,4.3
2023-04-27T03:45:56.826Z,5.5
2023-04-27T03:47:56.614Z,7.4
2023-04-27T03:49:52.944Z,9.5
2023-04-27T03:51:53.315Z,12.8
2023-04-27T03:53:53.487Z,16.4
2023-04-27T03:55:53.571Z,19.1
2023-04-27T03:57:53.440Z,23.3
2023-04-27T03:59:56.726Z,30
2023-04-27T04:01:53.700Z,36.6
2023-04-27T04:03:53.630Z,47
2023-04-27T04:05:53.391Z,60.3
2023-04-27T04:07:52.920Z,73.7
2023-04-27T04:09:53.161Z,94.6
2023-04-27T04:11:56.568Z,109.9
2023-04-27T04:13:53.498Z,134.3
2023-04-27T04:15:53.066Z,156
2023-04-27T04:17:59.679Z,172.4
2023-04-27T04:19:53.019Z,200.3
2023-04-27T04:21:56.750Z,232.8
2023-04-27T04:23:53.420Z,270.4
2023-04-27T04:25:53.430Z,298.9
2023-04-27T04:27:53.435Z,330.3
2023-04-27T04:29:52.881Z,365
2023-04-27T04:31:53.429Z,403.4
2023-04-27T04:33:53.043Z,424.1
2023-04-27T04:35:56.565Z,468.7
2023-04-27T04:37:53.392Z,492.7
2023-04-27T04:39:53.527Z,518
2023-04-27T04:41:53.599Z,518
2023-04-27T04:43:53.532Z,518
2023-04-27T04:45:56.620Z,544.6
2023-04-27T04:47:53.484Z,572.5
2023-04-27T04:49:53.072Z,601.8
2023-04-27T04:51:56.591Z,632.7
2023-04-27T04:53:53.713Z,665.1
2023-04-27T04:55:53.483Z,699.2
2023-04-27T04:57:53.448Z,735.1
2023-04-27T04:59:53.116Z,772.8
2023-04-27T05:01:56.229Z,812.4
2023-04-27T05:03:53.556Z,854.1
2023-04-27T05:05:56.509Z,897.8
2023-04-27T05:07:59.786Z,992.3
2023-04-27T05:09:53.058Z,1152.9
2023-04-27T05:11:52.855Z,1152.9
2023-04-27T05:13:52.896Z,1212
2023-04-27T05:15:53.412Z,1274.1
2023-04-27T05:17:56.633Z,1339.4
2023-04-27T05:19:53.058Z,1339.4
2023-04-27T05:21:56.475Z,1339.4
2023-04-27T05:23:56.536Z,1274.1
2023-04-27T05:25:56.679Z,1274.1
2023-04-27T05:27:53.434Z,1212
2023-04-27T05:29:52.860Z,1274.1
2023-04-27T05:31:56.948Z,1274.1
2023-04-27T05:33:53.309Z,1274.1
2023-04-27T05:35:53.344Z,1339.4
2023-04-27T05:37:53.403Z,1408.1
2023-04-27T05:39:53.020Z,1408.1
2023-04-27T05:41:53.457Z,1408.1
2023-04-27T05:43:52.929Z,1480.3
2023-04-27T05:45:52.938Z,1556.2
2023-04-27T05:47:53.426Z,1636
2023-04-27T05:49:53.252Z,1719.9
2023-04-27T05:51:53.421Z,1808
2023-04-27T05:53:56.626Z,1900.7
2023-04-27T05:55:53.311Z,1900.7
2023-04-27T05:58:06.862Z,1998.2
2023-04-27T05:59:52.946Z,1998.2
2023-04-27T06:01:53.733Z,2100.6
2023-04-27T06:03:53.460Z,2100.6
2023-04-27T06:05:53.414Z,2100.6
2023-04-27T06:07:53.371Z,2208.3
2023-04-27T06:09:56.561Z,2208.3
2023-04-27T06:11:53.445Z,2208.3
2023-04-27T06:13:56.546Z,2208.3
2023-04-27T06:15:52.991Z,2208.3
2023-04-27T06:17:56.425Z,2208.3
2023-04-27T06:19:52.991Z,2208.3
2023-04-27T06:21:53.541Z,2321.6
2023-04-27T06:23:53.419Z,2440.6
2023-04-27T06:25:53.003Z,2440.6
2023-04-27T06:27:56.513Z,2565.7
2023-04-27T06:29:59.802Z,2697.3
2023-04-27T06:33:53.368Z,2835.6
2023-04-27T06:35:53.450Z,2981
2023-04-27T06:37:53.061Z,2981
2023-04-27T06:39:53.473Z,2981
2023-04-27T06:41:53.215Z,2981
2023-04-27T06:43:53.037Z,3133.8
2023-04-27T06:45:53.566Z,3133.8
2023-04-27T06:47:59.872Z,3294.5
2023-04-27T06:49:53.014Z,3294.5
2023-04-27T06:51:59.703Z,3463.4
2023-04-27T06:53:53.427Z,3463.4
2023-04-27T06:55:52.943Z,3641
2023-04-27T06:57:52.889Z,3641
2023-04-27T06:59:59.703Z,3641
2023-04-27T07:01:53.525Z,3827.6
2023-04-27T07:03:53.627Z,4023.9
2023-04-27T07:07:53.613Z,4447.1
2023-04-27T07:09:52.938Z,4675.1
2023-04-27T07:11:56.838Z,4675.1
2023-04-27T07:13:53.297Z,4914.8
2023-04-27T07:15:53.509Z,4914.8
2023-04-27T07:17:53.400Z,5166.8
2023-04-27T07:19:53.331Z,5166.8
2023-04-27T07:21:53.596Z,5431.7
2023-04-27T07:23:56.735Z,5431.7
2023-04-27T07:25:53.431Z,5431.7
2023-04-27T07:27:59.961Z,5710.1
2023-04-27T07:29:52.994Z,5710.1
2023-04-27T07:31:56.668Z,6002.9
2023-04-27T07:33:53.512Z,6002.9
2023-04-27T07:35:56.838Z,6002.9
2023-04-27T07:37:52.972Z,6310.7
2023-04-27T07:39:53.549Z,6310.7
2023-04-27T07:41:53.434Z,6634.2
2023-04-27T07:43:53.392Z,6634.2
2023-04-27T07:45:53.583Z,6634.2
2023-04-27T07:47:53.260Z,6974.4
2023-04-27T07:51:53.381Z,7332
2023-04-27T07:53:53.486Z,8103.1
2023-04-27T07:55:53.558Z,8518.5
2023-04-27T07:57:53.404Z,8518.5
2023-04-27T07:59:53.415Z,8518.5
2023-04-27T08:03:53.070Z,8955.3
2023-04-27T08:05:56.708Z,9414.4
2023-04-27T08:07:56.638Z,9414.4
2023-04-27T08:09:53.028Z,9414.4
2023-04-27T08:11:53.366Z,9897.1
2023-04-27T08:13:56.555Z,9897.1
2023-04-27T08:15:56.630Z,10404.6
2023-04-27T08:17:56.563Z,9897.1
2023-04-27T08:19:56.009Z,10404.6
2023-04-27T08:21:54.416Z,10404.6
2023-04-27T08:23:56.637Z,10938
2023-04-27T08:25:53.510Z,10938
2023-04-27T08:27:56.544Z,10938
2023-04-27T08:29:59.723Z,10938
2023-04-27T08:31:55.028Z,11498.8
2023-04-27T08:33:56.591Z,12088.4
2023-04-27T08:35:56.653Z,12088.4
2023-04-27T08:37:53.114Z,13359.7
2023-04-27T08:39:53.125Z,12708.2
2023-04-27T08:41:59.766Z,12708.2
2023-04-27T08:43:52.995Z,12088.4
2023-04-27T08:45:59.845Z,12088.4
2023-04-27T08:47:56.724Z,12088.4
2023-04-27T08:49:53.054Z,13359.7
2023-04-27T08:51:53.098Z,13359.7
2023-04-27T08:53:53.481Z,12708.2
2023-04-27T08:55:53.390Z,13359.7
2023-04-27T08:57:53.451Z,12708.2
2023-04-27T08:59:52.857Z,14764.8
2023-04-27T09:01:53.537Z,12708.2
2023-04-27T09:04:00.130Z,13359.7
2023-04-27T09:06:04.164Z,12708.2
2023-04-27T09:07:53.383Z,12088.4
2023-04-27T09:09:52.932Z,12708.2
2023-04-27T09:11:53.487Z,12708.2
2023-04-27T09:13:53.328Z,11498.8
2023-04-27T09:15:53.516Z,11498.8
2023-04-27T09:17:53.470Z,12088.4
2023-04-27T09:19:53.698Z,10938
2023-04-27T09:21:53.374Z,10938
2023-04-27T09:23:56.540Z,10404.6
2023-04-27T09:25:56.985Z,8103.1
2023-04-27T09:27:53.398Z,8955.3
2023-04-27T09:29:53.375Z,8518.5
2023-04-27T09:31:53.018Z,8518.5
2023-04-27T09:33:56.483Z,8518.5
2023-04-27T09:35:53.411Z,8518.5
2023-04-27T09:37:53.366Z,8955.3
2023-04-27T09:39:53.124Z,9897.1
2023-04-27T09:41:53.517Z,9414.4
2023-04-27T09:43:52.960Z,10404.6
2023-04-27T09:45:59.742Z,10404.6
2023-04-27T09:47:53.895Z,10404.6
2023-04-27T09:49:53.083Z,10404.6
2023-04-27T09:51:56.738Z,10938
2023-04-27T09:53:53.299Z,10938
2023-04-27T09:55:52.979Z,11498.8
2023-04-27T09:57:53.367Z,11498.8
2023-04-27T09:59:53.399Z,11498.8
2023-04-27T10:01:56.671Z,11498.8
2023-04-27T10:03:53.489Z,11498.8
2023-04-27T10:05:53.502Z,11498.8
2023-04-27T10:07:53.272Z,11498.8
2023-04-27T10:09:53.026Z,12088.4
2023-04-27T10:11:52.946Z,11498.8
2023-04-27T10:13:54.316Z,11498.8
2023-04-27T10:15:53.667Z,10404.6
2023-04-27T10:17:53.448Z,8955.3
2023-04-27T10:19:54.324Z,9414.4
2023-04-27T10:21:56.632Z,9414.4
2023-04-27T10:23:59.663Z,9897.1
2023-04-27T10:25:52.960Z,10404.6
2023-04-27T10:27:56.664Z,9897.1
2023-04-27T10:29:53.417Z,9414.4
2023-04-27T10:31:56.589Z,9897.1
2023-04-27T10:35:53.425Z,9414.4
2023-04-27T10:37:52.913Z,9414.4
2023-04-27T10:39:57.046Z,8955.3
2023-04-27T10:41:59.837Z,8955.3
2023-04-27T10:43:59.637Z,9897.1
2023-04-27T10:45:56.773Z,11498.8
2023-04-27T10:47:56.017Z,11498.8
2023-04-27T10:49:52.876Z,8955.3
2023-04-27T10:51:53.167Z,8518.5
2023-04-27T10:53:52.936Z,8518.5
2023-04-27T10:55:53.467Z,8518.5
2023-04-27T10:57:53.034Z,8103.1
2023-04-27T10:59:56.731Z,8103.1
2023-04-27T11:01:53.042Z,8103.1
2023-04-27T11:03:53.454Z,7707.9
2023-04-27T11:05:52.945Z,7332
2023-04-27T11:07:53.491Z,10938
2023-04-27T11:09:53.374Z,10938
2023-04-27T11:11:53.613Z,9897.1
2023-04-27T11:13:52.998Z,10404.6
2023-04-27T11:15:53.532Z,8103.1
2023-04-27T11:17:59.708Z,8103.1
2023-04-27T11:19:53.522Z,7707.9
2023-04-27T11:21:53.713Z,8518.5
2023-04-27T11:23:53.100Z,8103.1
2023-04-27T11:25:56.467Z,8518.5
2023-04-27T11:27:56.575Z,10404.6
2023-04-27T11:29:52.910Z,12088.4
2023-04-27T11:31:53.565Z,10938
2023-04-27T11:33:53.013Z,9414.4
2023-04-27T11:35:53.696Z,8518.5
2023-04-27T11:37:52.945Z,8518.5
2023-04-27T11:39:53.082Z,9897.1
2023-04-27T11:41:56.692Z,9414.4
2023-04-27T11:43:56.796Z,9897.1
2023-04-27T11:45:56.739Z,10938
2023-04-27T11:47:53.525Z,11498.8
2023-04-27T11:49:59.708Z,11498.8
2023-04-27T11:51:53.681Z,12088.4
2023-04-27T11:53:53.262Z,12088.4
2023-04-27T11:55:52.939Z,10404.6
2023-04-27T11:57:56.578Z,12088.4
2023-04-27T11:59:59.925Z,10938
2023-04-27T12:01:53.163Z,10938
2023-04-27T12:03:53.592Z,11498.8
2023-04-27T12:05:53.765Z,10938
2023-04-27T12:07:53.512Z,10938
2023-04-27T12:09:57.168Z,10404.6
2023-04-27T12:11:56.562Z,10938
2023-04-27T12:13:53.412Z,11498.8
2023-04-27T12:16:00.913Z,10938
2023-04-27T12:17:52.954Z,8518.5
2023-04-27T12:19:53.686Z,8103.1
2023-04-27T12:21:53.461Z,10938
2023-04-27T12:23:53.070Z,8955.3
2023-04-27T12:25:56.766Z,8518.5
2023-04-27T12:27:53.783Z,10404.6
2023-04-27T12:29:53.494Z,11498.8
2023-04-27T12:31:53.698Z,11498.8
2023-04-27T12:33:53.357Z,11498.8
2023-04-27T12:35:56.705Z,12088.4
2023-04-27T12:37:53.150Z,12088.4
2023-04-27T12:39:53.413Z,11498.8
2023-04-27T12:41:53.560Z,12088.4
2023-04-27T12:43:52.925Z,12088.4
2023-04-27T12:45:53.477Z,11498.8
2023-04-27T12:48:02.353Z,11498.8
2023-04-27T12:49:59.706Z,10938
2023-04-27T12:51:56.628Z,11498.8
2023-04-27T12:53:52.876Z,11498.8
2023-04-27T12:55:53.042Z,12088.4
2023-04-27T12:57:53.553Z,12708.2
2023-04-27T12:59:56.636Z,12088.4
2023-04-27T13:01:52.982Z,13359.7
2023-04-27T13:03:53.473Z,12708.2
2023-04-27T13:05:59.283Z,12708.2
2023-04-27T13:07:53.030Z,13359.7
2023-04-27T13:09:52.923Z,12708.2
2023-04-27T13:11:56.709Z,12708.2
2023-04-27T13:13:53.383Z,12708.2
2023-04-27T13:15:53.328Z,12708.2
2023-04-27T13:17:53.517Z,12708.2
2023-04-27T13:19:56.626Z,12088.4
2023-04-27T13:21:53.491Z,11498.8
2023-04-27T13:23:53.050Z,7707.9
2023-04-27T13:25:53.004Z,10938
2023-04-27T13:27:52.972Z,8955.3
2023-04-27T13:29:52.999Z,10938
2023-04-27T13:31:56.670Z,11498.8
2023-04-27T13:33:52.895Z,8518.5
2023-04-27T13:35:56.189Z,8518.5
2023-04-27T13:37:53.729Z,9414.4
2023-04-27T13:39:53.032Z,10938
2023-04-27T13:41:53.720Z,8518.5
2023-04-27T13:43:53.498Z,9897.1
2023-04-27T13:45:52.998Z,8103.1
2023-04-27T13:47:53.473Z,9414.4
2023-04-27T13:49:53.421Z,9897.1
2023-04-27T13:51:56.650Z,10938
2023-04-27T13:53:52.970Z,11498.8
2023-04-27T13:55:52.961Z,10938
2023-04-27T13:57:53.433Z,11498.8
2023-04-27T13:59:53.070Z,9897.1
2023-04-27T14:01:53.004Z,10404.6
2023-04-27T14:03:53.731Z,10404.6
2023-04-27T14:05:53.481Z,8518.5
2023-04-27T14:07:53.745Z,10404.6
2023-04-27T14:09:53.384Z,10404.6
2023-04-27T14:11:57.138Z,9897.1
2023-04-27T14:13:53.043Z,10938
2023-04-27T14:15:53.087Z,10938
2023-04-27T14:17:53.609Z,10938
2023-04-27T14:21:59.633Z,10938
2023-04-27T14:23:53.512Z,10938
2023-04-27T14:25:53.474Z,9897.1
2023-04-27T14:27:53.466Z,9897.1
2023-04-27T14:29:53.434Z,9897.1
2023-04-27T14:31:56.545Z,9897.1
2023-04-27T14:33:53.405Z,7707.9
2023-04-27T14:35:53.085Z,7707.9
2023-04-27T14:37:53.104Z,8518.5
2023-04-27T14:39:56.515Z,8955.3
2023-04-27T14:41:52.917Z,8955.3
2023-04-27T14:43:53.408Z,8103.1
2023-04-27T14:45:57.283Z,9414.4
2023-04-27T14:47:53.028Z,9897.1
2023-04-27T14:49:56.601Z,9414.4
2023-04-27T14:51:52.954Z,8955.3
2023-04-27T14:53:53.566Z,7332
2023-04-27T14:55:52.953Z,6974.4
2023-04-27T14:57:53.463Z,6974.4
2023-04-27T14:59:56.593Z,6974.4
2023-04-27T15:01:53.685Z,6634.2
2023-04-27T15:03:53.669Z,6310.7
2023-04-27T15:05:53.076Z,5710.1
2023-04-27T15:07:53.556Z,5710.1
2023-04-27T15:09:53.427Z,6002.9
2023-04-27T15:11:59.802Z,5710.1
2023-04-27T15:13:53.451Z,7332
2023-04-27T15:15:52.992Z,6310.7
2023-04-27T15:17:53.182Z,7332
2023-04-27T15:19:59.218Z,6002.9
2023-04-27T15:21:53.403Z,6974.4
2023-04-27T15:23:53.443Z,6634.2
2023-04-27T15:25:52.883Z,6974.4
2023-04-27T15:27:53.409Z,7332
2023-04-27T15:29:59.758Z,7332
2023-04-27T15:31:53.412Z,7707.9
2023-04-27T15:33:52.979Z,8103.1
2023-04-27T15:35:53.054Z,7707.9
2023-04-27T15:37:56.595Z,7707.9
2023-04-27T15:41:53.410Z,5710.1
2023-04-27T15:43:52.989Z,6974.4
2023-04-27T15:45:56.612Z,6974.4
2023-04-27T15:49:59.796Z,6634.2
2023-04-27T15:51:52.900Z,6634.2
2023-04-27T15:53:53.101Z,6310.7
2023-04-27T15:55:56.665Z,6002.9
2023-04-27T15:57:53.562Z,6002.9
2023-04-27T15:59:56.389Z,6002.9
2023-04-27T16:01:52.992Z,6002.9
2023-04-27T16:03:56.769Z,5710.1
2023-04-27T16:05:53.125Z,5710.1
2023-04-27T16:07:53.781Z,5710.1
2023-04-27T16:09:53.424Z,5710.1
2023-04-27T16:11:52.948Z,5431.7
2023-04-27T16:13:53.533Z,5431.7
2023-04-27T16:15:53.013Z,5166.8
2023-04-27T16:17:59.822Z,4914.8
2023-04-27T16:19:52.986Z,4675.1
2023-04-27T16:21:56.637Z,4447.1
2023-04-27T16:23:53.021Z,4023.9
2023-04-27T16:25:56.314Z,2835.6
2023-04-27T16:27:52.972Z,2440.6
2023-04-27T16:29:53.480Z,2321.6
2023-04-27T16:31:59.731Z,2440.6
2023-04-27T16:33:53.359Z,2440.6
2023-04-27T16:35:53.077Z,2565.7
2023-04-27T16:37:53.446Z,3133.8
2023-04-27T16:39:53.444Z,2835.6
2023-04-27T16:41:56.509Z,2835.6
2023-04-27T16:43:53.416Z,2981
2023-04-27T16:45:56.787Z,2835.6
2023-04-27T16:47:53.042Z,3294.5
2023-04-27T16:49:56.695Z,3463.4
2023-04-27T16:51:56.664Z,3463.4
2023-04-27T16:53:56.611Z,3294.5
2023-04-27T16:55:53.501Z,3294.5
2023-04-27T16:57:53.371Z,2697.3
2023-04-27T16:59:59.698Z,2565.7
2023-04-27T17:01:53.725Z,2440.6
2023-04-27T17:03:53.427Z,2321.6
2023-04-27T17:05:53.054Z,2100.6
2023-04-27T17:07:53.396Z,1998.2
2023-04-27T17:09:53.416Z,1900.7
2023-04-27T17:11:52.980Z,1808
2023-04-27T17:13:52.967Z,1719.9
2023-04-27T17:15:59.828Z,1719.9
2023-04-27T17:17:56.648Z,1636
2023-04-27T17:19:53.460Z,1636
2023-04-27T17:21:52.949Z,1636
2023-04-27T17:23:52.961Z,1636
2023-04-27T17:25:53.066Z,1556.2
2023-04-27T17:27:53.313Z,1556.2
2023-04-27T17:29:53.108Z,1480.3
2023-04-27T17:31:52.993Z,1636
2023-04-27T17:33:56.642Z,1719.9
2023-04-27T17:35:59.999Z,1636
2023-04-27T17:37:56.627Z,1556.2
2023-04-27T17:39:53.497Z,1556.2
2023-04-27T17:41:53.310Z,1480.3
2023-04-27T17:43:53.451Z,1339.4
2023-04-27T17:45:52.987Z,1274.1
2023-04-27T17:47:53.580Z,1096.6
2023-04-27T17:49:53.057Z,1043.1
2023-04-27T17:51:53.419Z,943.9
2023-04-27T17:53:56.721Z,897.8
2023-04-27T17:55:53.038Z,812.4
2023-04-27T17:57:52.977Z,665.1
2023-04-27T17:59:53.630Z,601.8
2023-04-27T18:01:53.013Z,544.6
2023-04-27T18:03:56.649Z,492.7
2023-04-27T18:05:52.902Z,445.9
2023-04-27T18:07:52.985Z,383.8
2023-04-27T18:09:56.763Z,314.2
2023-04-27T18:11:52.939Z,270.4
2023-04-27T18:13:53.389Z,232.8
2023-04-27T18:15:56.625Z,200.3
2023-04-27T18:17:53.160Z,172.4
2023-04-27T18:20:01.119Z,141.2
2023-04-27T18:21:59.234Z,121.5
2023-04-27T18:23:56.506Z,99.5
2023-04-27T18:25:56.580Z,77.5
2023-04-27T18:27:56.786Z,63.4
2023-04-27T18:29:53.026Z,49.4
2023-04-27T18:31:53.510Z,40.4
2023-04-27T18:33:53.463Z,30
2023-04-27T18:35:59.809Z,22.2
2023-04-27T18:37:56.352Z,16.4
2023-04-27T18:39:53.458Z,12.2
2023-04-27T18:41:53.364Z,8.6
2023-04-27T18:43:52.938Z,6
2023-04-27T18:45:56.124Z,4.3
2023-04-27T18:47:53.692Z,3
2023-04-27T18:49:53.445Z,2.1
2023-04-27T18:51:56.556Z,1.4
2023-04-27T18:53:56.608Z,1.1
2023-04-27T18:55:53.045Z,0.7
2023-04-27T18:57:53.461Z,0.5
2023-04-27T18:59:53.478Z,0.4
2023-04-27T19:01:59.909Z,0.3
2023-04-27T19:03:56.903Z,0.2
2023-04-27T19:05:53.020Z,0.2
2023-04-27T19:07:53.018Z,0.1
2023-04-27T19:09:56.174Z,0
2023-04-27T19:12:02.645Z,0
2023-04-27T19:13:53.450Z,0
2023-04-27T19:15:56.584Z,0
2023-04-27T19:18:02.584Z,0
2023-04-27T19:19:53.469Z,0
2023-04-27T19:21:53.467Z,0
2023-04-27T19:23:56.669Z,1
2023-04-27T19:25:55.169Z,1
2023-04-27T19:27:56.689Z,1
2023-04-27T19:29:53.417Z,1
2023-04-27T19:31:59.763Z,1
2023-04-27T19:33:55.091Z,1
2023-04-27T19:35:56.636Z,1
2023-04-27T19:37:53.143Z,1
2023-04-27T19:39:53.682Z,1
2023-04-27T19:41:53.600Z,1
2023-04-27T19:43:53.430Z,1
2023-04-27T19:45:56.336Z,1
2023-04-27T19:47:52.917Z,1
2023-04-27T19:49:59.264Z,1
2023-04-27T19:51:53.496Z,1
2023-04-27T19:53:56.152Z,1
2023-04-27T19:55:53.503Z,1
2023-04-27T19:57:53.789Z,1
2023-04-27T19:59:53.590Z,1
2023-04-27T20:01:52.993Z,1
2023-04-27T20:03:53.352Z,1
2023-04-27T20:05:56.847Z,1
2023-04-27T20:07:59.888Z,1
2023-04-27T20:09:56.745Z,1
2023-04-27T20:11:53.439Z,1
2023-04-27T20:13:53.104Z,1
2023-04-27T20:15:53.657Z,1
2023-04-27T20:17:59.874Z,1
2023-04-27T20:19:56.816Z,1
2023-04-27T20:21:53.505Z,1
2023-04-27T20:23:52.979Z,1
2023-04-27T20:25:59.793Z,1
2023-04-27T20:27:53.047Z,1
2023-04-27T20:29:53.020Z,1
2023-04-27T20:31:52.934Z,1
2023-04-27T20:36:01.122Z,1
2023-04-27T20:37:56.664Z,1
2023-04-27T20:39:53.742Z,1
2023-04-27T20:41:56.676Z,1
2023-04-27T20:43:53.546Z,1
2023-04-27T20:45:56.898Z,1
2023-04-27T20:47:53.042Z,1
2023-04-27T20:51:53.121Z,1
2023-04-27T20:53:53.103Z,1
2023-04-27T20:55:53.101Z,1
2023-04-27T20:57:53.498Z,1
2023-04-27T20:59:56.687Z,1
2023-04-27T21:01:53.508Z,1
2023-04-27T21:03:53.351Z,1
2023-04-27T21:05:53.056Z,1
2023-04-27T21:07:53.508Z,1
2023-04-27T21:09:53.539Z,1
2023-04-27T21:11:56.767Z,1
2023-04-27T21:13:53.494Z,1
2023-04-27T21:15:53.032Z,1
2023-04-27T21:17:53.490Z,1
2023-04-27T21:19:53.209Z,1
2023-04-27T21:21:53.531Z,1
2023-04-27T21:24:00.770Z,1
2023-04-27T21:25:53.302Z,1
2023-04-27T21:27:53.615Z,1
2023-04-27T21:29:53.446Z,1
2023-04-27T21:31:53.011Z,1
2023-04-27T21:33:56.182Z,1
2023-04-27T21:35:53.439Z,1
2023-04-27T21:37:56.512Z,1
2023-04-27T21:39:56.694Z,0
2023-04-27T21:41:52.967Z,1
2023-04-27T21:43:53.098Z,1
2023-04-27T21:45:53.443Z,1
2023-04-27T21:47:56.618Z,1
2023-04-27T21:49:56.890Z,1
2023-04-27T21:51:56.638Z,1
2023-04-27T21:53:53.058Z,1
2023-04-27T21:55:52.984Z,1
2023-04-27T21:57:56.617Z,1
2023-04-27T21:59:53.321Z,1
2023-04-27T22:01:53.570Z,1
2023-04-27T22:03:53.376Z,1
2023-04-27T22:05:53.378Z,1
2023-04-27T22:07:56.700Z,1
2023-04-27T22:09:56.620Z,1
2023-04-27T22:11:53.528Z,1
2023-04-27T22:13:56.612Z,1
2023-04-27T22:15:56.893Z,1
2023-04-27T22:17:53.144Z,1
2023-04-27T22:19:53.420Z,1
2023-04-27T22:21:53.444Z,1
2023-04-27T22:23:53.652Z,1
2023-04-27T22:25:56.708Z,1
2023-04-27T22:27:56.654Z,1
2023-04-27T22:29:53.460Z,1
2023-04-27T22:31:53.539Z,1
2023-04-27T22:33:53.152Z,1
2023-04-27T22:35:53.517Z,1
2023-04-27T22:37:53.655Z,1
2023-04-27T22:39:53.500Z,1
2023-04-27T22:41:53.633Z,1
2023-04-27T22:43:53.108Z,1
2023-04-27T22:45:53.569Z,1
2023-04-27T22:47:56.642Z,1
2023-04-27T22:49:53.206Z,1
2023-04-27T22:51:53.571Z,1
2023-04-27T22:53:53.149Z,1
2023-04-27T22:55:56.609Z,1
2023-04-27T22:57:53.132Z,1
2023-04-27T22:59:53.073Z,1
2023-04-27T23:01:53.513Z,1
2023-04-27T23:03:53.280Z,1
2023-04-27T23:05:53.404Z,1
2023-04-27T23:07:53.576Z,1
2023-04-27T23:09:56.657Z,1
2023-04-27T23:11:56.744Z,1
2023-04-27T23:13:53.662Z,1
2023-04-27T23:15:53.153Z,1
2023-04-27T23:17:53.511Z,1
2023-04-27T23:19:56.621Z,1
2023-04-27T23:21:53.607Z,1
2023-04-27T23:23:56.756Z,1
2023-04-27T23:25:53.396Z,1
2023-04-27T23:29:56.619Z,1
2023-04-27T23:31:53.537Z,1
2023-04-27T23:33:53.981Z,1
2023-04-27T23:35:54.709Z,1
2023-04-27T23:37:53.608Z,1
2023-04-27T23:39:59.878Z,1
2023-04-27T23:41:53.464Z,1
2023-04-27T23:45:53.085Z,1
2023-04-27T23:48:00.359Z,1
2023-04-27T23:49:53.113Z,1
2023-04-27T23:51:56.809Z,1
2023-04-27T23:53:59.817Z,1
2023-04-27T23:55:53.547Z,1
2023-04-27T23:57:53.559Z,1
2023-04-27T23:59:56.220Z,1
